Time;durP1;ratioP1;P1;durP2;ratioP2;P2;SDS_P1;SDS_P2;PMS_P1;PMS_P2;Temp;Humidity;BMP_temperature;BMP_pressure;BME280_temperature;BME280_humidity;BME280_pressure;Samples;Min_cycle;Max_cycle;Signal;HPM_P1;HPM_P2
2022/08/28 00:00:14;;;;;;;12.87;4.70;;;;;;;;;;5036219;28;20496;-77
2022/08/28 00:02:42;;;;;;;14.43;5.03;;;;;;;;;;5036218;28;20441;-77
2022/08/28 00:05:10;;;;;;;10.83;5.67;;;;;;;;;;5036405;28;20446;-77
2022/08/28 00:07:38;;;;;;;7.83;4.73;;;;;;;;;;5036039;28;20489;-78
2022/08/28 00:10:07;;;;;;;11.10;5.47;;;;;;;;;;5036259;28;20513;-77
2022/08/28 00:12:36;;;;;;;16.60;5.40;;;;;;;;;;5036063;28;21025;-78
2022/08/28 00:15:04;;;;;;;9.87;4.40;;;;;;;;;;5036304;28;20552;-77
2022/08/28 00:17:31;;;;;;;9.17;4.80;;;;;;;;;;5036355;28;20883;-77
2022/08/28 00:19:58;;;;;;;12.10;5.57;;;;;;;;;;5035849;28;20529;-77
2022/08/28 00:22:26;;;;;;;12.47;5.17;;;;;;;;;;5035813;28;20449;-76
2022/08/28 00:24:53;;;;;;;13.50;5.33;;;;;;;;;;5035962;28;20485;-76
2022/08/28 00:30:07;;;;;;;11.90;5.00;;;;;;;;;;5035744;28;20406;-76
2022/08/28 00:32:34;;;;;;;17.70;5.47;;;;;;;;;;5035979;28;20546;-75
2022/08/28 00:35:01;;;;;;;6.87;4.80;;;;;;;;;;5035970;28;20447;-76
2022/08/28 00:37:29;;;;;;;8.50;4.30;;;;;;;;;;5036415;28;20445;-75
2022/08/28 00:39:56;;;;;;;11.93;4.43;;;;;;;;;;5035487;28;20885;-76
2022/08/28 00:42:25;;;;;;;11.33;4.80;;;;;;;;;;5035794;28;20482;-76
2022/08/28 00:44:52;;;;;;;9.17;4.53;;;;;;;;;;5035289;28;20533;-75
2022/08/28 00:47:22;;;;;;;10.90;5.13;;;;;;;;;;5035335;28;20578;-76
2022/08/28 00:49:51;;;;;;;18.80;6.03;;;;;;;;;;5035228;28;20557;-75
2022/08/28 00:52:19;;;;;;;9.60;5.00;;;;;;;;;;5035515;28;20512;-75
2022/08/28 00:54:48;;;;;;;9.50;5.20;;;;;;;;;;5035432;28;20503;-75
2022/08/28 00:57:19;;;;;;;14.77;6.30;;;;;;;;;;5035658;28;20452;-75
2022/08/28 00:59:48;;;;;;;20.67;5.37;;;;;;;;;;5035632;28;20433;-75
2022/08/28 01:02:15;;;;;;;10.43;5.50;;;;;;;;;;5035082;28;20452;-76
2022/08/28 01:04:43;;;;;;;13.27;5.47;;;;;;;;;;5035245;28;20453;-76
2022/08/28 01:07:11;;;;;;;7.13;4.90;;;;;;;;;;5034862;28;20490;-76
2022/08/28 01:09:40;;;;;;;13.90;5.00;;;;;;;;;;5034010;28;20477;-76
2022/08/28 01:12:09;;;;;;;13.60;5.30;;;;;;;;;;5035261;28;20475;-76
2022/08/28 01:14:38;;;;;;;13.40;5.27;;;;;;;;;;5035172;28;20455;-76
2022/08/28 01:17:07;;;;;;;12.87;4.93;;;;;;;;;;5034817;28;20529;-76
2022/08/28 01:19:36;;;;;;;12.23;5.10;;;;;;;;;;5034984;28;20801;-76
2022/08/28 01:22:08;;;;;;;16.90;5.43;;;;;;;;;;5034728;28;20456;-76
2022/08/28 01:24:38;;;;;;;20.93;5.00;;;;;;;;;;5034974;28;20436;-76
2022/08/28 01:27:06;;;;;;;17.50;7.40;;;;;;;;;;5035314;28;20565;-76
2022/08/28 01:29:33;;;;;;;12.70;5.40;;;;;;;;;;5034467;28;20440;-76
2022/08/28 01:32:00;;;;;;;10.93;4.93;;;;;;;;;;5034918;28;20792;-76
2022/08/28 01:34:29;;;;;;;10.53;4.40;;;;;;;;;;5034735;28;20449;-76
2022/08/28 01:36:57;;;;;;;9.07;4.70;;;;;;;;;;5034756;28;20495;-75
2022/08/28 01:39:25;;;;;;;16.10;5.07;;;;;;;;;;5034683;28;20454;-76
2022/08/28 01:41:55;;;;;;;11.20;4.53;;;;;;;;;;5034441;28;20442;-75
2022/08/28 01:44:24;;;;;;;13.10;6.10;;;;;;;;;;5034719;28;20494;-76
2022/08/28 01:46:52;;;;;;;15.00;5.63;;;;;;;;;;5034454;28;20536;-76
2022/08/28 01:49:20;;;;;;;8.87;5.10;;;;;;;;;;5034272;28;20960;-77
2022/08/28 01:51:47;;;;;;;13.97;5.10;;;;;;;;;;5034471;28;20517;-77
2022/08/28 01:54:14;;;;;;;11.47;4.17;;;;;;;;;;5034570;28;20967;-75
2022/08/28 01:56:43;;;;;;;15.93;5.40;;;;;;;;;;5034292;28;20443;-75
2022/08/28 01:59:13;;;;;;;14.93;5.23;;;;;;;;;;5034726;28;20552;-75
2022/08/28 02:01:41;;;;;;;10.43;4.70;;;;;;;;;;5034323;28;20439;-76
2022/08/28 02:04:08;;;;;;;14.63;4.70;;;;;;;;;;5034318;28;20447;-76
2022/08/28 02:06:36;;;;;;;10.03;5.70;;;;;;;;;;5034031;28;20445;-76
2022/08/28 02:09:04;;;;;;;12.40;5.70;;;;;;;;;;5034112;28;20524;-75
2022/08/28 02:11:31;;;;;;;10.57;4.90;;;;;;;;;;5034015;28;20790;-75
2022/08/28 02:13:59;;;;;;;8.60;5.17;;;;;;;;;;5034096;28;20844;-76
2022/08/28 02:16:28;;;;;;;13.80;5.63;;;;;;;;;;5033972;28;20527;-75
2022/08/28 02:18:55;;;;;;;7.60;5.20;;;;;;;;;;5033638;28;20802;-75
2022/08/28 02:21:24;;;;;;;10.13;4.83;;;;;;;;;;5033434;28;20986;-76
2022/08/28 02:23:51;;;;;;;14.70;5.70;;;;;;;;;;5033605;28;20854;-77
2022/08/28 02:26:18;;;;;;;8.27;5.03;;;;;;;;;;5033797;28;20803;-75
2022/08/28 02:28:46;;;;;;;9.90;5.03;;;;;;;;;;5033816;28;20960;-75
2022/08/28 02:31:13;;;;;;;13.83;4.93;;;;;;;;;;5033734;28;20449;-75
2022/08/28 02:33:43;;;;;;;10.80;5.93;;;;;;;;;;5033512;28;20549;-75
2022/08/28 02:36:11;;;;;;;14.13;6.00;;;;;;;;;;5033998;28;20459;-75
2022/08/28 02:38:39;;;;;;;8.97;5.20;;;;;;;;;;5033578;28;20534;-75
2022/08/28 02:41:06;;;;;;;14.07;6.00;;;;;;;;;;5033602;28;20536;-75
2022/08/28 02:43:34;;;;;;;14.53;5.80;;;;;;;;;;5033315;28;20535;-76
2022/08/28 02:46:01;;;;;;;8.97;5.63;;;;;;;;;;5033594;28;20449;-76
2022/08/28 02:48:30;;;;;;;13.10;5.77;;;;;;;;;;5033212;28;20566;-76
2022/08/28 02:51:01;;;;;;;14.23;5.20;;;;;;;;;;5033163;28;20443;-76
2022/08/28 02:53:29;;;;;;;15.73;5.53;;;;;;;;;;5034020;28;20435;-76
2022/08/28 02:55:57;;;;;;;13.47;5.70;;;;;;;;;;5033669;28;20492;-76
2022/08/28 02:58:25;;;;;;;14.27;5.57;;;;;;;;;;5033690;28;20872;-76
2022/08/28 03:00:53;;;;;;;15.87;6.20;;;;;;;;;;5033556;28;20534;-76
2022/08/28 03:03:20;;;;;;;14.43;6.40;;;;;;;;;;5033829;28;20868;-76
2022/08/28 03:05:48;;;;;;;13.07;6.30;;;;;;;;;;5033051;28;20450;-77
2022/08/28 03:08:17;;;;;;;12.90;5.60;;;;;;;;;;5033481;28;20480;-76
2022/08/28 03:10:44;;;;;;;14.97;6.10;;;;;;;;;;5034254;28;20487;-76
2022/08/28 03:13:11;;;;;;;8.43;5.37;;;;;;;;;;5033021;28;20933;-76
2022/08/28 03:15:42;;;;;;;12.90;5.67;;;;;;;;;;5032909;28;20539;-76
2022/08/28 03:18:10;;;;;;;11.40;5.50;;;;;;;;;;5033100;28;20441;-77
2022/08/28 03:20:37;;;;;;;19.00;5.60;;;;;;;;;;5033208;28;20470;-76
2022/08/28 03:25:51;;;;;;;10.90;5.93;;;;;;;;;;5033018;28;20401;-74
2022/08/28 03:28:19;;;;;;;11.60;5.77;;;;;;;;;;5032974;28;20964;-76
2022/08/28 03:30:48;;;;;;;13.10;5.47;;;;;;;;;;5033294;28;20530;-76
2022/08/28 03:33:15;;;;;;;15.43;5.23;;;;;;;;;;5035762;28;20509;-76
2022/08/28 03:35:42;;;;;;;9.90;5.20;;;;;;;;;;5037053;28;20475;-76
2022/08/28 03:38:11;;;;;;;9.07;5.47;;;;;;;;;;5036922;28;20453;-76
2022/08/28 03:40:41;;;;;;;10.90;6.70;;;;;;;;;;5037168;28;20463;-76
2022/08/28 03:43:09;;;;;;;10.67;5.93;;;;;;;;;;5036865;28;20435;-76
2022/08/28 03:45:37;;;;;;;18.13;7.30;;;;;;;;;;5036851;28;20582;-76
2022/08/28 03:48:04;;;;;;;14.03;6.20;;;;;;;;;;5036653;28;20609;-76
2022/08/28 03:50:31;;;;;;;12.83;5.63;;;;;;;;;;5037084;28;20991;-76
2022/08/28 03:52:59;;;;;;;10.00;5.70;;;;;;;;;;5036319;28;20544;-76
2022/08/28 03:55:26;;;;;;;9.90;6.60;;;;;;;;;;5036823;28;20526;-76
2022/08/28 03:57:53;;;;;;;14.07;5.87;;;;;;;;;;5036751;28;20452;-77
2022/08/28 04:00:22;;;;;;;10.30;5.63;;;;;;;;;;5036299;28;20932;-76
2022/08/28 04:02:50;;;;;;;15.93;6.10;;;;;;;;;;5036415;28;20517;-77
2022/08/28 04:05:17;;;;;;;16.57;7.07;;;;;;;;;;5036203;28;20538;-75
2022/08/28 04:07:45;;;;;;;10.30;5.20;;;;;;;;;;5036420;28;20553;-75
2022/08/28 04:10:12;;;;;;;8.80;5.87;;;;;;;;;;5036306;28;20484;-76
2022/08/28 04:12:39;;;;;;;9.30;6.17;;;;;;;;;;5036221;28;20522;-75
2022/08/28 04:15:07;;;;;;;12.30;5.57;;;;;;;;;;5035054;28;20936;-76
2022/08/28 04:17:38;;;;;;;12.93;6.70;;;;;;;;;;5035377;28;20450;-75
2022/08/28 04:20:06;;;;;;;13.43;5.03;;;;;;;;;;5035209;28;20444;-74
2022/08/28 04:22:33;;;;;;;10.53;5.10;;;;;;;;;;5035405;28;20501;-75
2022/08/28 04:25:00;;;;;;;13.83;5.90;;;;;;;;;;5035110;28;20527;-75
2022/08/28 04:27:28;;;;;;;12.17;5.80;;;;;;;;;;5035232;28;20482;-76
2022/08/28 04:29:55;;;;;;;14.40;5.97;;;;;;;;;;5035606;28;20443;-75
2022/08/28 04:32:22;;;;;;;10.70;5.60;;;;;;;;;;5035903;28;20479;-76
2022/08/28 04:34:51;;;;;;;17.57;6.90;;;;;;;;;;5035156;28;20530;-77
2022/08/28 04:37:18;;;;;;;13.13;7.10;;;;;;;;;;5035804;28;20439;-76
2022/08/28 04:39:45;;;;;;;9.47;5.03;;;;;;;;;;5035601;28;20479;-76
2022/08/28 04:42:13;;;;;;;9.33;4.77;;;;;;;;;;5035621;28;20538;-76
2022/08/28 04:44:40;;;;;;;9.67;5.30;;;;;;;;;;5034464;28;20531;-76
2022/08/28 04:47:07;;;;;;;14.17;7.07;;;;;;;;;;5035794;28;20535;-77
2022/08/28 04:49:35;;;;;;;11.53;5.07;;;;;;;;;;5035415;28;21050;-76
2022/08/28 04:52:04;;;;;;;13.07;6.17;;;;;;;;;;5035809;28;20435;-76
2022/08/28 04:54:33;;;;;;;10.73;5.70;;;;;;;;;;5034593;28;20526;-76
2022/08/28 04:57:00;;;;;;;15.43;6.00;;;;;;;;;;5035505;28;20440;-76
2022/08/28 04:59:28;;;;;;;20.40;7.80;;;;;;;;;;5035579;28;20444;-77
2022/08/28 05:01:55;;;;;;;16.20;6.87;;;;;;;;;;5035807;28;20493;-75
2022/08/28 05:04:22;;;;;;;17.73;7.00;;;;;;;;;;5035392;28;20481;-76
2022/08/28 05:06:49;;;;;;;11.77;5.53;;;;;;;;;;5035316;28;20860;-76
2022/08/28 05:09:19;;;;;;;11.07;6.07;;;;;;;;;;5034988;28;20531;-76
2022/08/28 05:11:47;;;;;;;16.63;6.90;;;;;;;;;;5035075;28;20530;-77
2022/08/28 05:14:14;;;;;;;8.47;6.30;;;;;;;;;;5034123;28;20531;-76
2022/08/28 05:16:43;;;;;;;12.03;6.50;;;;;;;;;;5035021;28;20476;-78
2022/08/28 05:19:10;;;;;;;12.60;6.27;;;;;;;;;;5035078;28;20444;-76
2022/08/28 05:21:38;;;;;;;12.00;5.30;;;;;;;;;;5034834;28;20538;-77
2022/08/28 05:24:06;;;;;;;12.77;6.10;;;;;;;;;;5034583;28;21011;-76
2022/08/28 05:26:36;;;;;;;9.60;6.90;;;;;;;;;;5034987;28;20537;-74
2022/08/28 05:29:04;;;;;;;10.37;5.83;;;;;;;;;;5034914;28;20515;-75
2022/08/28 05:31:32;;;;;;;9.60;5.60;;;;;;;;;;5034817;28;20440;-74
2022/08/28 05:34:00;;;;;;;14.20;6.60;;;;;;;;;;5033923;28;20450;-74
2022/08/28 05:36:28;;;;;;;18.00;6.47;;;;;;;;;;5034483;28;20536;-75
2022/08/28 05:38:57;;;;;;;13.10;5.50;;;;;;;;;;5034932;28;20447;-75
2022/08/28 05:41:25;;;;;;;16.97;6.43;;;;;;;;;;5034704;28;20538;-74
2022/08/28 05:43:54;;;;;;;12.80;5.87;;;;;;;;;;5034116;28;20980;-74
2022/08/28 05:46:22;;;;;;;10.60;6.43;;;;;;;;;;5034627;28;20471;-75
2022/08/28 05:48:49;;;;;;;15.47;6.60;;;;;;;;;;5034653;28;20483;-74
2022/08/28 05:51:18;;;;;;;14.00;5.87;;;;;;;;;;5034544;28;20464;-75
2022/08/28 05:53:46;;;;;;;8.70;5.60;;;;;;;;;;5033598;28;20453;-75
2022/08/28 05:56:14;;;;;;;9.57;5.20;;;;;;;;;;5034147;28;20964;-75
2022/08/28 05:58:41;;;;;;;20.53;6.30;;;;;;;;;;5034384;28;20471;-75
2022/08/28 06:01:11;;;;;;;17.23;5.80;;;;;;;;;;5034063;28;20527;-75
2022/08/28 06:03:39;;;;;;;9.23;5.90;;;;;;;;;;5034316;28;20475;-75
2022/08/28 06:06:07;;;;;;;11.43;5.20;;;;;;;;;;5034257;28;20493;-75
2022/08/28 06:08:35;;;;;;;9.30;4.80;;;;;;;;;;5033406;28;20477;-75
2022/08/28 06:11:02;;;;;;;11.13;4.97;;;;;;;;;;5033887;28;20472;-74
2022/08/28 06:13:30;;;;;;;12.43;4.80;;;;;;;;;;5034028;28;20440;-74
2022/08/28 06:15:58;;;;;;;13.50;5.23;;;;;;;;;;5034159;28;20438;-75
2022/08/28 06:18:27;;;;;;;16.80;5.37;;;;;;;;;;5033669;28;20462;-75
2022/08/28 06:20:54;;;;;;;9.33;5.50;;;;;;;;;;5034067;28;20800;-75
2022/08/28 06:23:23;;;;;;;12.67;6.10;;;;;;;;;;5033887;28;20447;-74
2022/08/28 06:25:51;;;;;;;11.43;5.37;;;;;;;;;;5034231;28;20994;-75
2022/08/28 06:28:19;;;;;;;11.57;4.80;;;;;;;;;;5033761;28;20568;-74
2022/08/28 06:30:46;;;;;;;11.43;4.33;;;;;;;;;;5034020;28;21019;-74
2022/08/28 06:33:15;;;;;;;14.17;4.00;;;;;;;;;;5033705;28;20492;-74
2022/08/28 06:35:44;;;;;;;12.70;4.60;;;;;;;;;;5033803;28;20452;-75
2022/08/28 06:38:11;;;;;;;19.63;9.47;;;;;;;;;;5034323;28;20817;-73
2022/08/28 06:40:40;;;;;;;6.60;4.13;;;;;;;;;;5033536;28;20451;-74
2022/08/28 06:43:07;;;;;;;12.77;4.20;;;;;;;;;;5033379;28;20446;-75
2022/08/28 06:45:34;;;;;;;7.77;4.40;;;;;;;;;;5033574;28;20495;-75
2022/08/28 06:48:02;;;;;;;11.13;4.03;;;;;;;;;;5033615;28;20524;-75
2022/08/28 06:50:29;;;;;;;12.80;4.37;;;;;;;;;;5033593;28;20532;-75
2022/08/28 06:52:57;;;;;;;14.97;5.20;;;;;;;;;;5033424;28;20544;-74
2022/08/28 06:55:25;;;;;;;13.43;4.10;;;;;;;;;;5033112;28;20543;-78
2022/08/28 06:57:52;;;;;;;11.53;4.70;;;;;;;;;;5033911;28;20437;-75
2022/08/28 07:00:20;;;;;;;12.27;4.30;;;;;;;;;;5032617;28;20455;-76
2022/08/28 07:02:47;;;;;;;9.27;4.33;;;;;;;;;;5032896;28;20527;-76
2022/08/28 07:05:14;;;;;;;13.23;4.77;;;;;;;;;;5033389;28;20496;-76
2022/08/28 07:07:41;;;;;;;11.43;4.30;;;;;;;;;;5035358;28;20490;-76
2022/08/28 07:10:10;;;;;;;10.33;4.87;;;;;;;;;;5037212;28;20525;-77
2022/08/28 07:12:38;;;;;;;13.20;4.60;;;;;;;;;;5038030;28;20529;-75
2022/08/28 07:15:06;;;;;;;9.40;4.30;;;;;;;;;;5036978;28;20440;-75
2022/08/28 07:17:34;;;;;;;8.73;3.73;;;;;;;;;;5037048;28;20487;-75
2022/08/28 07:20:02;;;;;;;9.17;3.97;;;;;;;;;;5036769;28;20940;-75
2022/08/28 07:22:30;;;;;;;5.90;4.13;;;;;;;;;;5036308;28;20529;-76
2022/08/28 07:24:57;;;;;;;11.30;4.50;;;;;;;;;;5037175;28;20434;-75
2022/08/28 07:27:26;;;;;;;11.73;3.90;;;;;;;;;;5036896;28;20515;-74
2022/08/28 07:29:53;;;;;;;7.70;3.67;;;;;;;;;;5036742;28;20485;-74
2022/08/28 07:32:21;;;;;;;8.50;4.47;;;;;;;;;;5036798;28;20439;-74
2022/08/28 07:34:49;;;;;;;8.20;3.27;;;;;;;;;;5037495;28;20444;-75
2022/08/28 07:37:16;;;;;;;10.07;3.40;;;;;;;;;;5037442;28;20934;-75
2022/08/28 07:39:44;;;;;;;9.80;4.17;;;;;;;;;;5036741;28;20457;-75
2022/08/28 07:44:47;;;;;;;10.30;3.73;;;;;;;;;;5035846;28;20452;-76
2022/08/28 07:44:59;;;;;;;7.43;3.97;;;;;;;;;;5036398;28;20420;-75
2022/08/28 07:47:30;;;;;;;5.03;3.20;;;;;;;;;;5036351;28;20460;-74
2022/08/28 07:49:59;;;;;;;9.33;3.40;;;;;;;;;;5036604;28;20467;-75
2022/08/28 07:52:28;;;;;;;14.77;2.90;;;;;;;;;;5036491;28;20944;-76
2022/08/28 07:54:55;;;;;;;11.43;3.43;;;;;;;;;;5037036;28;20436;-76
2022/08/28 07:57:23;;;;;;;7.53;3.33;;;;;;;;;;5036441;28;20487;-75
2022/08/28 07:59:51;;;;;;;12.73;3.57;;;;;;;;;;5036666;28;20858;-75
2022/08/28 08:02:19;;;;;;;32.40;4.20;;;;;;;;;;5036233;28;20948;-75
2022/08/28 08:04:47;;;;;;;8.30;3.30;;;;;;;;;;5036094;28;20438;-75
2022/08/28 08:07:16;;;;;;;6.90;3.00;;;;;;;;;;5035781;28;20810;-74
2022/08/28 08:09:45;;;;;;;10.70;3.93;;;;;;;;;;5035465;28;20499;-75
2022/08/28 08:12:13;;;;;;;11.53;2.90;;;;;;;;;;5036338;28;20492;-76
2022/08/28 08:14:41;;;;;;;8.00;2.60;;;;;;;;;;5036216;28;20446;-77
2022/08/28 08:17:08;;;;;;;8.43;3.30;;;;;;;;;;5036308;28;20550;-75
2022/08/28 08:19:37;;;;;;;8.00;3.67;;;;;;;;;;5036063;28;20607;-75
2022/08/28 08:22:04;;;;;;;7.10;3.47;;;;;;;;;;5036168;28;20447;-75
2022/08/28 08:24:31;;;;;;;6.00;2.80;;;;;;;;;;5036025;28;20443;-74
2022/08/28 08:26:59;;;;;;;5.70;3.10;;;;;;;;;;5035504;28;20539;-74
2022/08/28 08:29:27;;;;;;;10.23;3.03;;;;;;;;;;5035649;28;20515;-75
2022/08/28 08:32:01;;;;;;;8.10;3.17;;;;;;;;;;5035364;28;21003;-74
2022/08/28 08:34:28;;;;;;;8.70;3.37;;;;;;;;;;5035991;28;20425;-74
2022/08/28 08:36:57;;;;;;;11.80;3.37;;;;;;;;;;5035751;28;20451;-74
2022/08/28 08:39:24;;;;;;;6.30;3.47;;;;;;;;;;5035398;28;21032;-75
2022/08/28 08:41:54;;;;;;;12.30;3.20;;;;;;;;;;5035809;28;20458;-75
2022/08/28 08:44:25;;;;;;;10.33;4.10;;;;;;;;;;5035673;28;20981;-74
2022/08/28 08:46:56;;;;;;;9.03;2.97;;;;;;;;;;5035222;28;20519;-75
2022/08/28 08:49:24;;;;;;;6.97;3.40;;;;;;;;;;5035253;28;20504;-74
2022/08/28 08:51:55;;;;;;;6.80;2.97;;;;;;;;;;5035580;28;20494;-74
2022/08/28 08:54:24;;;;;;;7.03;3.13;;;;;;;;;;5035805;28;20535;-75
2022/08/28 08:56:53;;;;;;;8.50;3.00;;;;;;;;;;5035486;28;20619;-75
2022/08/28 08:59:22;;;;;;;7.80;2.90;;;;;;;;;;5035152;28;20549;-75
2022/08/28 09:01:54;;;;;;;5.50;3.00;;;;;;;;;;5034764;28;20444;-74
2022/08/28 09:04:26;;;;;;;10.43;2.80;;;;;;;;;;5035122;28;20486;-74
2022/08/28 09:06:57;;;;;;;6.60;3.60;;;;;;;;;;5034848;28;20417;-74
2022/08/28 09:09:28;;;;;;;5.00;3.07;;;;;;;;;;5034498;28;20490;-74
2022/08/28 09:11:57;;;;;;;7.30;3.10;;;;;;;;;;5035202;28;20444;-74
2022/08/28 09:14:25;;;;;;;8.40;2.60;;;;;;;;;;5034879;28;20528;-75
2022/08/28 09:16:53;;;;;;;6.90;2.73;;;;;;;;;;5035237;28;20519;-75
2022/08/28 09:19:21;;;;;;;6.63;2.90;;;;;;;;;;5035185;28;20973;-75
2022/08/28 09:21:49;;;;;;;6.50;2.70;;;;;;;;;;5034993;28;20488;-75
2022/08/28 09:24:20;;;;;;;6.93;2.50;;;;;;;;;;5035288;28;20859;-74
2022/08/28 09:26:54;;;;;;;7.10;3.67;;;;;;;;;;5034845;28;20829;-74
2022/08/28 09:29:25;;;;;;;6.20;2.30;;;;;;;;;;5033641;28;21006;-74
2022/08/28 09:31:52;;;;;;;8.00;2.30;;;;;;;;;;5034203;28;20481;-74
2022/08/28 09:34:22;;;;;;;9.03;2.57;;;;;;;;;;5035243;28;20545;-76
2022/08/28 09:36:50;;;;;;;7.57;4.10;;;;;;;;;;5034529;28;20927;-75
2022/08/28 09:39:18;;;;;;;4.77;2.23;;;;;;;;;;5034431;28;20463;-76
2022/08/28 09:44:55;;;;;;;10.13;2.60;;;;;;;;;;5034561;28;20879;-74
2022/08/28 09:47:40;;;;;;;7.23;2.73;;;;;;;;;;5034183;28;20436;-75
2022/08/28 09:50:15;;;;;;;18.20;3.07;;;;;;;;;;5034426;28;20483;-74
2022/08/28 09:52:43;;;;;;;7.20;3.80;;;;;;;;;;5033985;28;20531;-75
2022/08/28 09:55:13;;;;;;;12.33;3.43;;;;;;;;;;5034409;28;20533;-74
2022/08/28 09:57:43;;;;;;;4.90;2.60;;;;;;;;;;5034519;28;20502;-74
2022/08/28 10:00:11;;;;;;;7.03;3.07;;;;;;;;;;5034518;28;20827;-75
2022/08/28 10:02:41;;;;;;;4.63;2.30;;;;;;;;;;5034586;28;21001;-74
2022/08/28 10:05:10;;;;;;;6.63;2.77;;;;;;;;;;5034451;28;20993;-74
2022/08/28 10:07:39;;;;;;;4.70;2.63;;;;;;;;;;5034044;28;20485;-74
2022/08/28 10:10:18;;;;;;;4.70;3.00;;;;;;;;;;5033487;28;20579;-74
2022/08/28 10:12:52;;;;;;;8.47;3.30;;;;;;;;;;5033768;28;20515;-74
2022/08/28 10:15:25;;;;;;;6.50;2.70;;;;;;;;;;5034183;28;20437;-74
2022/08/28 10:18:00;;;;;;;4.23;2.37;;;;;;;;;;5033730;28;20995;-75
2022/08/28 10:20:34;;;;;;;8.87;2.67;;;;;;;;;;5033692;28;20432;-74
2022/08/28 10:23:05;;;;;;;6.50;2.47;;;;;;;;;;5033598;28;20444;-75
2022/08/28 10:25:39;;;;;;;7.43;2.33;;;;;;;;;;5033665;28;20431;-75
2022/08/28 10:28:24;;;;;;;5.07;3.10;;;;;;;;;;5034062;28;20422;-73
2022/08/28 10:30:55;;;;;;;6.20;2.23;;;;;;;;;;5033588;28;20473;-73
2022/08/28 10:33:33;;;;;;;7.70;2.70;;;;;;;;;;5033408;28;20436;-73
2022/08/28 10:36:04;;;;;;;5.40;2.80;;;;;;;;;;5034321;28;20519;-74
2022/08/28 10:38:36;;;;;;;4.80;2.50;;;;;;;;;;5033907;28;20932;-75
2022/08/28 10:41:07;;;;;;;4.77;2.10;;;;;;;;;;5035384;28;20972;-75
2022/08/28 10:43:37;;;;;;;6.33;2.70;;;;;;;;;;5035344;28;20432;-75
2022/08/28 10:46:05;;;;;;;8.97;4.23;;;;;;;;;;5034939;28;20519;-76
2022/08/28 10:48:36;;;;;;;6.87;2.93;;;;;;;;;;5033741;28;20535;-74
2022/08/28 10:51:05;;;;;;;7.57;2.70;;;;;;;;;;5033554;28;20484;-73
2022/08/28 10:53:36;;;;;;;5.27;2.27;;;;;;;;;;5033427;28;20536;-73
2022/08/28 10:56:05;;;;;;;4.00;2.10;;;;;;;;;;5033613;28;20445;-73
2022/08/28 10:58:33;;;;;;;4.53;2.50;;;;;;;;;;5033071;28;20443;-72
2022/08/28 11:01:03;;;;;;;4.17;2.47;;;;;;;;;;5032419;28;20543;-72
2022/08/28 11:03:33;;;;;;;4.73;2.37;;;;;;;;;;5032598;28;20446;-74
2022/08/28 11:06:04;;;;;;;5.03;2.47;;;;;;;;;;5033473;28;20488;-73
2022/08/28 11:08:33;;;;;;;5.80;2.70;;;;;;;;;;5032595;28;20427;-73
2022/08/28 11:11:01;;;;;;;4.77;2.70;;;;;;;;;;5033737;28;20492;-73
2022/08/28 11:13:44;;;;;;;4.40;2.43;;;;;;;;;;5032558;28;20464;-74
2022/08/28 11:16:18;;;;;;;6.63;3.03;;;;;;;;;;5033220;28;20444;-74
2022/08/28 11:18:55;;;;;;;6.30;3.90;;;;;;;;;;5033462;28;20438;-74
2022/08/28 11:21:26;;;;;;;10.87;2.97;;;;;;;;;;5033530;28;20443;-74
2022/08/28 11:23:57;;;;;;;4.13;2.30;;;;;;;;;;5033394;28;20787;-72
2022/08/28 11:26:29;;;;;;;5.87;2.80;;;;;;;;;;5033356;28;20522;-71
2022/08/28 11:28:56;;;;;;;5.03;2.50;;;;;;;;;;5032834;28;20976;-72
2022/08/28 11:31:33;;;;;;;4.17;2.30;;;;;;;;;;5032968;28;20803;-72
2022/08/28 11:34:01;;;;;;;7.23;2.53;;;;;;;;;;5032606;28;20520;-72
2022/08/28 11:36:47;;;;;;;6.73;2.23;;;;;;;;;;5032798;28;20460;-72
2022/08/28 11:39:21;;;;;;;4.20;2.27;;;;;;;;;;5032994;28;20545;-72
2022/08/28 11:42:06;;;;;;;5.30;2.70;;;;;;;;;;5033032;28;20450;-73
2022/08/28 11:44:42;;;;;;;6.60;2.90;;;;;;;;;;5032586;28;20444;-73
2022/08/28 11:47:27;;;;;;;5.63;2.40;;;;;;;;;;5033370;28;20448;-72
2022/08/28 11:49:56;;;;;;;7.60;2.53;;;;;;;;;;5032482;28;20482;-72
2022/08/28 11:52:36;;;;;;;5.20;2.53;;;;;;;;;;5032798;28;20442;-72
2022/08/28 11:55:10;;;;;;;7.97;2.23;;;;;;;;;;5036462;28;20461;-73
2022/08/28 11:57:46;;;;;;;4.43;2.50;;;;;;;;;;5036371;28;20429;-72
2022/08/28 12:00:21;;;;;;;5.10;2.17;;;;;;;;;;5036349;28;20480;-71
2022/08/28 12:02:50;;;;;;;4.30;2.20;;;;;;;;;;5036621;28;20458;-73
2022/08/28 12:05:39;;;;;;;5.53;2.57;;;;;;;;;;5036468;28;20766;-72
2022/08/28 12:08:06;;;;;;;7.33;2.27;;;;;;;;;;5036770;28;20472;-72
2022/08/28 12:10:53;;;;;;;3.77;1.90;;;;;;;;;;5035633;28;20912;-72
2022/08/28 12:13:35;;;;;;;4.10;2.40;;;;;;;;;;5036783;28;20461;-71
2022/08/28 12:16:06;;;;;;;8.80;2.63;;;;;;;;;;5036131;28;21014;-71
2022/08/28 12:18:52;;;;;;;4.47;2.40;;;;;;;;;;5048041;28;20459;-72
2022/08/28 12:21:21;;;;;;;6.50;2.77;;;;;;;;;;5055548;28;20441;-73
2022/08/28 12:23:57;;;;;;;4.43;2.13;;;;;;;;;;5056059;28;20530;-72
2022/08/28 12:26:27;;;;;;;5.93;2.47;;;;;;;;;;5056123;28;20775;-74
2022/08/28 12:28:56;;;;;;;7.50;2.20;;;;;;;;;;5055760;28;20850;-72
2022/08/28 12:34:32;;;;;;;6.97;2.37;;;;;;;;;;5055628;28;20761;-72
2022/08/28 12:37:02;;;;;;;4.17;2.73;;;;;;;;;;5055520;28;20465;-72
2022/08/28 12:39:31;;;;;;;4.30;2.40;;;;;;;;;;5055178;28;20551;-72
2022/08/28 12:41:58;;;;;;;5.07;3.07;;;;;;;;;;5055506;28;20441;-73
2022/08/28 12:44:26;;;;;;;6.83;2.80;;;;;;;;;;5055753;28;20517;-73
2022/08/28 12:46:54;;;;;;;7.10;4.03;;;;;;;;;;5055622;28;20533;-72
2022/08/28 12:49:29;;;;;;;3.13;2.50;;;;;;;;;;5055159;28;21025;-73
2022/08/28 12:52:09;;;;;;;3.20;2.60;;;;;;;;;;5055480;28;20559;-73
2022/08/28 12:54:36;;;;;;;5.13;3.00;;;;;;;;;;5055818;28;20535;-72
2022/08/28 12:57:08;;;;;;;4.10;2.57;;;;;;;;;;5055190;28;20448;-72
2022/08/28 12:59:36;;;;;;;7.87;3.27;;;;;;;;;;5054757;28;20445;-72
2022/08/28 13:02:04;;;;;;;5.03;2.43;;;;;;;;;;5055080;28;20536;-71
2022/08/28 13:04:33;;;;;;;4.80;1.90;;;;;;;;;;5054589;28;20476;-72
2022/08/28 13:07:02;;;;;;;11.50;4.97;;;;;;;;;;5055054;28;20450;-72
2022/08/28 13:09:31;;;;;;;7.70;3.37;;;;;;;;;;5054647;28;20468;-72
2022/08/28 13:11:58;;;;;;;4.23;3.17;;;;;;;;;;5053864;28;20483;-72
2022/08/28 13:14:38;;;;;;;7.00;3.40;;;;;;;;;;5054088;28;20871;-73
2022/08/28 13:17:06;;;;;;;8.90;4.03;;;;;;;;;;5053806;28;20543;-73
2022/08/28 13:19:34;;;;;;;5.20;2.17;;;;;;;;;;5053150;28;20476;-73
2022/08/28 13:22:02;;;;;;;4.50;1.97;;;;;;;;;;5053969;28;20447;-73
2022/08/28 13:24:42;;;;;;;8.90;2.83;;;;;;;;;;5053837;28;20435;-72
2022/08/28 13:27:17;;;;;;;6.97;2.70;;;;;;;;;;5054316;28;20804;-72
2022/08/28 13:29:51;;;;;;;4.93;2.83;;;;;;;;;;5053785;28;20906;-72
2022/08/28 13:32:19;;;;;;;7.17;2.77;;;;;;;;;;5053903;28;20465;-72
2022/08/28 13:35:01;;;;;;;4.60;3.07;;;;;;;;;;5053461;28;20509;-72
2022/08/28 13:37:41;;;;;;;3.83;2.20;;;;;;;;;;5054010;28;20517;-72
2022/08/28 13:40:11;;;;;;;3.90;2.33;;;;;;;;;;5053253;28;20536;-72
2022/08/28 13:42:38;;;;;;;4.23;2.10;;;;;;;;;;5053697;28;20448;-72
2022/08/28 13:45:06;;;;;;;4.37;2.23;;;;;;;;;;5053364;28;20946;-73
2022/08/28 13:47:33;;;;;;;6.07;2.00;;;;;;;;;;5053444;28;20519;-73
2022/08/28 13:50:01;;;;;;;7.20;2.10;;;;;;;;;;5053889;28;20472;-72
2022/08/28 13:52:28;;;;;;;5.00;2.30;;;;;;;;;;5053135;28;20478;-72
2022/08/28 13:54:55;;;;;;;4.00;1.93;;;;;;;;;;5053430;28;20556;-73
2022/08/28 13:57:24;;;;;;;3.17;2.27;;;;;;;;;;5053349;28;20537;-72
2022/08/28 13:59:51;;;;;;;2.60;2.00;;;;;;;;;;5052611;28;20545;-72
2022/08/28 14:05:03;;;;;;;5.50;2.10;;;;;;;;;;5053368;28;20490;-73
2022/08/28 14:07:30;;;;;;;5.47;2.70;;;;;;;;;;5053044;28;20516;-73
2022/08/28 14:09:58;;;;;;;4.27;2.30;;;;;;;;;;5013996;28;1126171;-71
2022/08/28 14:12:27;;;;;;;3.37;2.10;;;;;;;;;;5053720;28;20699;-71
2022/08/28 14:14:54;;;;;;;4.70;2.40;;;;;;;;;;5053977;28;20442;-72
2022/08/28 14:17:22;;;;;;;2.60;1.83;;;;;;;;;;5053399;28;21026;-73
2022/08/28 14:19:49;;;;;;;3.27;2.50;;;;;;;;;;5053304;28;20459;-72
2022/08/28 14:22:17;;;;;;;8.63;2.33;;;;;;;;;;5053639;28;20454;-72
2022/08/28 14:24:44;;;;;;;4.20;2.53;;;;;;;;;;5053817;28;20443;-72
2022/08/28 14:27:12;;;;;;;4.70;2.13;;;;;;;;;;5053751;28;20556;-73
2022/08/28 14:29:40;;;;;;;3.67;2.23;;;;;;;;;;5053903;28;20528;-72
2022/08/28 14:32:08;;;;;;;5.23;2.60;;;;;;;;;;5053604;28;20558;-72
2022/08/28 14:34:36;;;;;;;5.93;2.83;;;;;;;;;;5053631;28;20495;-73
2022/08/28 14:37:05;;;;;;;5.23;2.07;;;;;;;;;;5053600;28;20796;-72
2022/08/28 14:39:32;;;;;;;4.30;2.33;;;;;;;;;;5052852;28;20455;-72
2022/08/28 14:41:59;;;;;;;6.00;3.30;;;;;;;;;;5053329;28;20807;-72
2022/08/28 14:44:27;;;;;;;4.73;2.47;;;;;;;;;;5053751;28;20461;-72
2022/08/28 14:46:56;;;;;;;3.73;2.27;;;;;;;;;;5053191;28;21011;-73
2022/08/28 14:49:23;;;;;;;5.30;3.07;;;;;;;;;;5053422;28;20482;-73
2022/08/28 14:51:51;;;;;;;3.60;2.10;;;;;;;;;;5052975;28;20470;-72
2022/08/28 14:54:19;;;;;;;7.80;2.53;;;;;;;;;;5053187;28;20867;-74
2022/08/28 14:56:47;;;;;;;4.20;2.80;;;;;;;;;;5053458;28;20447;-71
2022/08/28 14:59:19;;;;;;;10.07;2.27;;;;;;;;;;5053331;28;20439;-72
2022/08/28 15:01:46;;;;;;;3.20;2.00;;;;;;;;;;5053456;28;20528;-73
2022/08/28 15:04:17;;;;;;;4.47;2.53;;;;;;;;;;5053325;28;20452;-73